Morena (449) Station Data

Red Flag Warning: No
Fire Weather Zone: 258
SDGE Region: Mountain Empire
Lat/Lon: 32.688/-116.512

Observations

Time Wind Speed/Gust Temp(F) RH Fuel Moist Fuel Temp(F) Dewpt(F) Tmax(F) Tmin(F) Accum Precip 10-min Precip SL Press(mb)
4/29 11:50pm 113 1 G 2 45° 35% - - 19° 71.5° 44.3° - - -
4/29 11:40pm 93 0 G 1 46° 33% - - 18° 71.5° 44.3° - - -
4/29 11:30pm 87 1 G 2 46° 35% - - 19° 71.5° 44.3° - - -
4/29 11:20pm 130 2 G 4 45° 38% - - 21° 71.5° 44.3° - - -
4/29 11:10pm 128 2 G 3 46° 37% - - 21° 71.5° 46° - - -
4/29 11:00pm 138 1 G 3 47° 34% - - 20° 71.5° 46.4° - - -
4/29 10:50pm 94 1 G 2 48° 31% - - 19° 71.5° 47.1° - - -
4/29 10:40pm 103 2 G 2 48° 32% - - 19° 71.5° 47.1° - - -
4/29 10:30pm 105 2 G 3 48° 35% - - 21° 71.5° 47.1° - - -
4/29 10:20pm 145 2 G 3 48° 35% - - 22° 71.5° 47.1° - - -
4/29 10:10pm 117 1 G 3 50° 31% - - 21° 71.5° 48.9° - - -
4/29 10:00pm 118 1 G 2 50° 32% - - 21° 71.5° 49.2° - - -
4/29 9:50pm 121 1 G 2 51° 29% - - 20° 71.5° 50° - - -
4/29 9:40pm 130 2 G 3 50° 30% - - 20° 71.5° 50° - - -
4/29 9:30pm 118 2 G 3 50° 30% - - 20° 71.5° 50° - - -
4/29 9:20pm 133 2 G 3 52° 28% - - 20° 71.5° 51.1° - - -
4/29 9:10pm 85 0 G 2 53° 27% - - 20° 71.5° 52.5° - - -
4/29 9:00pm 112 1 G 2 53° 27% - - 20° 71.5° 52.5° - - -
4/29 8:50pm 201 0 G 2 54° 26% - - 21° 71.5° 53.5° - - -
4/29 8:40pm 150 0 G 1 55° 25% - - 20° 71.5° 53.5° - - -
4/29 8:30pm 205 1 G 2 56° 23% - - 19° 71.5° 53.5° - - -
4/29 8:20pm 23 2 G 4 58° 21% - - 19° 71.5° 53.5° - - -
4/29 8:10pm 342 2 G 3 59° 21% - - 19° 71.5° 53.5° - - -
4/29 8:00pm 343 1 G 2 60° 21% - - 19° 71.5° 53.5° - - -
4/29 7:50pm 259 2 G 3 61° 19% - - 18° 71.5° 53.5° - - -
4/29 7:40pm 311 1 G 4 61° 18% - - 17° 71.5° 53.5° - - -
4/29 7:30pm 324 1 G 4 63° 17% - - 18° 71.5° 53.5° - - -
4/29 7:20pm 37 0 G 2 65° 17% - - 19° 71.5° 53.5° - - -
4/29 7:10pm 300 2 G 5 66° 16% - - 18° 71.5° 53.5° - - -
4/29 7:00pm 307 3 G 6 67° 14% - - 16° 71.5° 53.5° - - -
4/29 6:50pm 49 4 G 9 68° 11% - - 10° 71.5° 53.5° - - -
4/29 6:40pm 51 5 G 9 68° 10% - - 71.5° 53.5° - - -
4/29 6:30pm 55 6 G 12 69° 10% - - 71.5° 53.5° - - -
4/29 6:20pm 60 7 G 13 69° 9% - - 71.5° 53.5° - - -
4/29 6:10pm 60 8 G 17 69° 9% - - 71.5° 53.5° - - -
4/29 6:00pm 60 7 G 15 70° 9% - - 71.5° 53.5° - - -
4/29 5:50pm 62 9 G 17 70° 9% - - 71.5° 53.5° - - -
4/29 5:40pm 68 8 G 15 70° 9% - - 71.5° 53.5° - - -
4/29 5:30pm 60 9 G 16 70° 9% - - 71.5° 53.5° - - -
4/29 5:20pm 81 8 G 15 70° 10% - - 10° 71.5° 53.5° - - -
4/29 5:10pm 60 8 G 14 70° 9% - - 10° 71.5° 53.5° - - -
4/29 5:00pm 72 9 G 17 70° 9% - - 10° 71.5° 53.5° - - -
4/29 4:50pm 62 8 G 15 71° 9% - - 10° 71.5° 53.5° - - -
4/29 4:40pm 62 9 G 16 70° 9% - - 71.2° 53.5° - - -
4/29 4:30pm 58 10 G 17 70° 9% - - 71.2° 53.5° - - -
4/29 4:20pm 57 9 G 17 71° 9% - - 71.2° 53.5° - - -
4/29 4:10pm 58 9 G 19 70° 9% - - 71.2° 53.5° - - -
4/29 4:00pm 56 10 G 18 70° 9% - - 70.7° 53.5° - - -
4/29 3:50pm 63 10 G 19 70° 9% - - 70.7° 53.5° - - -
4/29 3:40pm 62 9 G 18 70° 10% - - 10° 70.7° 53.5° - - -
4/29 3:30pm 57 8 G 16 70° 10% - - 10° 70.7° 53.5° - - -
4/29 3:20pm 50 9 G 15 69° 10% - - 10° 70.7° 53.5° - - -
4/29 3:10pm 53 9 G 15 70° 10% - - 11° 70.7° 53.5° - - -
4/29 3:00pm 49 7 G 16 70° 10% - - 11° 70.2° 53.5° - - -
4/29 2:50pm 60 9 G 18 68° 11% - - 12° 70.1° 53.5° - - -
4/29 2:40pm 56 9 G 17 69° 10% - - 11° 70.1° 53.5° - - -
4/29 2:30pm 68 8 G 16 69° 11% - - 12° 69.6° 53.5° - - -
4/29 2:20pm 62 8 G 17 69° 11% - - 12° 69.6° 53.5° - - -
4/29 2:10pm 74 9 G 20 68° 11% - - 12° 68.7° 53.5° - - -
4/29 2:00pm 70 8 G 18 68° 11% - - 12° 68.7° 53.5° - - -
4/29 1:50pm 74 8 G 15 67° 12% - - 12° 68.6° 53.5° - - -
4/29 1:40pm 66 10 G 21 67° 12% - - 13° 68.5° 53.5° - - -
4/29 1:30pm 57 8 G 19 67° 12% - - 13° 68.2° 53.5° - - -
4/29 1:20pm 70 8 G 18 67° 12% - - 12° 68.2° 53.5° - - -
4/29 1:10pm 53 9 G 17 67° 12% - - 12° 67.5° 53.5° - - -
4/29 1:00pm 73 9 G 17 66° 12% - - 12° 67° 53.5° - - -
4/29 12:50pm 58 9 G 19 66° 12% - - 12° 67° 53.5° - - -
4/29 12:40pm 61 11 G 24 65° 12% - - 12° 66.4° 53.5° - - -
4/29 12:30pm 68 11 G 22 65° 12% - - 11° 66.4° 53.5° - - -
4/29 12:20pm 44 10 G 20 66° 12% - - 12° 66.4° 53.5° - - -
4/29 12:10pm 51 9 G 20 65° 13% - - 12° 66.3° 53.5° - - -
4/29 12:00pm 61 13 G 24 63° 12% - - 11° 64.8° 53.5° - - -
4/29 11:50am 66 13 G 22 64° 12% - - 11° 64.8° 53.5° - - -
4/29 11:40am 71 13 G 27 64° 12% - - 11° 64.6° 53.5° - - -
4/29 11:30am 67 12 G 25 64° 12% - - 10° 64.6° 53.5° - - -
4/29 11:20am 56 14 G 27 63° 12% - - 10° 64.2° 53.5° - - -
4/29 11:10am 53 15 G 27 63° 12% - - 64° 53.5° - - -
4/29 11:00am 53 14 G 24 63° 12% - - 63.8° 53.5° - - -
4/29 10:50am 54 14 G 23 63° 12% - - 63.2° 53.5° - - -
4/29 10:40am 58 14 G 24 63° 12% - - 63.2° 53.5° - - -
4/29 10:30am 64 14 G 26 62° 11% - - 63.2° 53.5° - - -
4/29 10:20am 66 12 G 24 62° 12% - - 10° 63.2° 53.5° - - -
4/29 10:10am 68 14 G 25 61° 12% - - 61.7° 53.5° - - -
4/29 10:00am 71 15 G 31 61° 13% - - 61.5° 53.5° - - -
4/29 9:50am 67 15 G 29 61° 13% - - 61.3° 53.5° - - -
4/29 9:40am 68 13 G 25 61° 13% - - 61.3° 53.5° - - -
4/29 9:30am 70 14 G 29 60° 13% - - 61.2° 53.5° - - -
4/29 9:20am 72 15 G 29 60° 13% - - 61.2° 53.5° - - -
4/29 9:10am 72 14 G 26 60° 13% - - 61.2° 53.5° - - -
4/29 9:00am 73 12 G 25 60° 13% - - 61.2° 53.5° - - -
4/29 8:50am 63 12 G 22 59° 13% - - 61.2° 53.5° - - -
4/29 8:40am 59 15 G 26 59° 12% - - 61.2° 53.5° - - -
4/29 8:30am 57 13 G 26 59° 12% - - 61.2° 53.5° - - -
4/29 8:20am 59 12 G 20 59° 12% - - 61.2° 53.5° - - -
4/29 8:10am 53 14 G 26 58° 12% - - 61.2° 53.5° - - -
4/29 8:00am 59 13 G 21 58° 13% - - 61.2° 53.5° - - -
4/29 7:50am 65 14 G 26 57° 13% - - 61.2° 53.5° - - -
4/29 7:40am 57 13 G 30 57° 13% - - 61.2° 53.5° - - -
4/29 7:30am 61 12 G 23 56° 13% - - 61.2° 53.5° - - -
4/29 7:20am 54 14 G 27 56° 13% - - 61.2° 53.5° - - -
4/29 7:10am 50 8 G 20 56° 13% - - 61.2° 53.5° - - -
4/29 7:00am 43 8 G 16 55° 13% - - 61.2° 53.5° - - -
4/29 6:50am 47 8 G 21 55° 13% - - 61.2° 53.5° - - -
4/29 6:40am 51 9 G 16 55° 13% - - 61.2° 53.5° - - -
4/29 6:30am 39 7 G 18 54° 13% - - 61.2° 53.5° - - -
4/29 6:20am 49 7 G 17 54° 13% - - 61.2° 53.5° - - -
4/29 6:10am 51 9 G 17 54° 13% - - 61.2° 53.5° - - -
4/29 6:00am 45 8 G 16 54° 13% - - 61.2° 53.5° - - -
4/29 5:50am 25 4 G 10 54° 14% - - 61.2° 53.5° - - -
4/29 5:40am 33 4 G 10 54° 14% - - 61.2° 53.7° - - -
4/29 5:30am 36 4 G 12 54° 14% - - 61.2° 53.8° - - -
4/29 5:20am 36 5 G 11 54° 14% - - 61.2° 54° - - -
4/29 5:10am 36 4 G 11 54° 14% - - 61.2° 54° - - -
4/29 5:00am 36 4 G 13 54° 14% - - 61.2° 54.2° - - -
4/29 4:50am 31 4 G 10 55° 14% - - 61.2° 54.4° - - -
4/29 4:40am 27 5 G 15 55° 13% - - 61.2° 54.9° - - -
4/29 4:30am 33 6 G 16 56° 13% - - 61.2° 54.9° - - -
4/29 4:20am 45 8 G 15 56° 13% - - 61.2° 54.9° - - -
4/29 4:10am 46 9 G 19 56° 13% - - 61.2° 54.9° - - -
4/29 4:00am 51 9 G 19 56° 14% - - 61.2° 54.9° - - -
4/29 3:50am 56 9 G 19 57° 14% - - 61.2° 54.9° - - -
4/29 3:40am 55 10 G 20 57° 14% - - 61.2° 54.9° - - -
4/29 3:30am 55 11 G 20 57° 14% - - 61.2° 54.9° - - -
4/29 3:20am 61 12 G 24 57° 14% - - 61.2° 54.9° - - -
4/29 3:10am 61 12 G 22 57° 14% - - 61.2° 54.9° - - -
4/29 3:00am 65 10 G 22 57° 14% - - 61.2° 54.9° - - -
4/29 2:50am 59 11 G 21 58° 14% - - 61.2° 54.9° - - -
4/29 2:40am 58 8 G 17 57° 14% - - 61.2° 54.9° - - -
4/29 2:30am 70 7 G 12 57° 14% - - 61.2° 54.9° - - -
4/29 2:20am 66 8 G 17 58° 13% - - 61.2° 54.9° - - -
4/29 2:10am 68 9 G 22 58° 13% - - 61.2° 54.9° - - -
4/29 2:00am 69 8 G 22 59° 14% - - 61.2° 54.9° - - -
4/29 1:50am 71 8 G 17 59° 13% - - 61.2° 54.9° - - -
4/29 1:40am 58 6 G 14 59° 12% - - 61.2° 54.9° - - -
4/29 1:30am 55 8 G 20 60° 12% - - 61.2° 54.9° - - -
4/29 1:20am 59 10 G 22 60° 11% - - 61.2° 54.9° - - -
4/29 1:10am 56 9 G 19 60° 11% - - 61.2° 54.9° - - -
4/29 1:00am 57 10 G 20 61° 11% - - 61.2° 54.9° - - -
4/29 12:50am 59 11 G 21 61° 11% - - 61.2° 54.9° - - -
4/29 12:40am 61 11 G 20 60° 12% - - 60.9° 54.9° - - -
4/29 12:30am 65 8 G 16 60° 13% - - 60.3° 54.9° - - -
4/29 12:20am 57 8 G 15 59° 13% - - 60.2° 54.9° - - -
4/29 12:10am 62 4 G 14 57° 17% - - 12° 57.6° 54.9° - - -
4/29 12:00am 47 4 G 12 53° 25% - - 18° 71.9° 45.1° - - -
4/28 11:50pm 82 2 G 7 48° 44% - - 27° 71.9° 45.1° - - -
4/28 11:40pm 116 2 G 6 47° 59% - - 33° 71.9° 45.1° - - -
4/28 11:30pm 135 1 G 2 47° 57% - - 32° 71.9° 45.1° - - -
4/28 11:20pm 72 1 G 2 46° 59% - - 33° 71.9° 45.1° - - -
4/28 11:10pm 116 1 G 3 47° 59% - - 34° 71.9° 45.1° - - -
4/28 11:00pm 119 1 G 3 49° 58% - - 35° 71.9° 45.1° - - -
4/28 10:50pm 107 2 G 3 50° 58% - - 36° 71.9° 45.1° - - -
4/28 10:40pm 104 0 G 2 50° 59% - - 36° 71.9° 45.1° - - -
4/28 10:30pm 102 1 G 3 50° 58% - - 36° 71.9° 45.1° - - -
4/28 10:20pm 150 4 G 5 49° 60% - - 36° 71.9° 45.1° - - -
4/28 10:10pm 154 3 G 4 50° 58% - - 36° 71.9° 45.1° - - -
4/28 10:00pm 134 3 G 4 50° 55% - - 35° 71.9° 45.1° - - -
4/28 9:50pm 67 1 G 2 52° 52% - - 35° 71.9° 45.1° - - -
4/28 9:40pm 67 1 G 2 52° 53% - - 35° 71.9° 45.1° - - -
4/28 9:30pm 105 2 G 3 52° 52% - - 35° 71.9° 45.1° - - -
4/28 9:20pm 166 1 G 2 54° 48% - - 35° 71.9° 45.1° - - -
4/28 9:10pm 128 3 G 7 54° 48% - - 35° 71.9° 45.1° - - -
4/28 9:00pm 12 2 G 6 56° 45% - - 35° 71.9° 45.1° - - -
4/28 8:50pm 149 1 G 3 55° 47% - - 35° 71.9° 45.1° - - -
4/28 8:40pm 95 1 G 2 56° 46% - - 35° 71.9° 45.1° - - -
4/28 8:30pm 320 2 G 3 56° 47% - - 36° 71.9° 45.1° - - -
4/28 8:20pm 309 2 G 4 57° 47% - - 37° 71.9° 45.1° - - -
4/28 8:10pm 300 3 G 6 57° 45% - - 36° 71.9° 45.1° - - -
4/28 8:00pm 281 3 G 7 58° 44% - - 36° 71.9° 45.1° - - -
4/28 7:50pm 286 3 G 9 58° 43% - - 36° 71.9° 45.1° - - -
4/28 7:40pm 281 5 G 11 59° 43% - - 37° 71.9° 45.1° - - -
4/28 7:30pm 275 6 G 10 59° 43% - - 37° 71.9° 45.1° - - -
4/28 7:20pm 274 7 G 12 60° 42% - - 37° 71.9° 45.1° - - -
4/28 7:10pm 278 6 G 13 60° 41% - - 37° 71.9° 45.1° - - -
4/28 7:00pm 277 5 G 13 61° 41% - - 38° 71.9° 45.1° - - -
4/28 6:50pm 279 6 G 11 62° 41% - - 38° 71.9° 45.1° - - -
4/28 6:40pm 272 7 G 12 62° 40% - - 37° 71.9° 45.1° - - -
4/28 6:30pm 269 8 G 13 62° 39% - - 37° 71.9° 45.1° - - -
4/28 6:20pm 274 7 G 13 63° 40% - - 39° 71.9° 45.1° - - -
4/28 6:10pm 278 6 G 12 64° 40% - - 39° 71.9° 45.1° - - -
4/28 6:00pm 285 5 G 10 65° 39% - - 40° 71.9° 45.1° - - -